Cockrell Hill, Texas
Current Conditions -  °F | °C
As of 10:53 PM on Thursday 30 Oct 2014 (Local Time) from KRBD Reporting Station
Clear Clear  
Wind Chill: 17°   Ceiling: Unl
Heat Index: 17°   Visibility: 10mi
Dew Point: 13°   Wind: 7mph
Humidity: 75%   Direction: 320°NW
Pressure: 30.14"   Gusts: NA
Location:  32.7371°N, 96.9045°W
Report Text: KRBD 310353Z 32006KT 10SM CLR 17/13 A3014 RMK AO2 SLP203 T01720128
Loading
Personal Weather Stations






























Interactive Weather Map
Tropical Storm Tracking
New forecast layout! Learn more

10-Day Weather Forecast

Advertisements
Track Severe Weather on mobile